Time;durP1;ratioP1;P1;durP2;ratioP2;P2;SDS_P1;SDS_P2;PMS_P1;PMS_P2;Temp;Humidity;BMP_temperature;BMP_pressure;BME280_temperature;BME280_humidity;BME280_pressure;Samples;Min_cycle;Max_cycle;Signal;HPM_P1;HPM_P2
2021/09/25 00:00:30;;;;;;;1.92;0.40;;;;;;;;;;5072858;28;20043;-67
2021/09/25 00:02:58;;;;;;;2.22;0.55;;;;;;;;;;5072519;28;20032;-67
2021/09/25 00:05:26;;;;;;;3.75;0.50;;;;;;;;;;5059574;28;20089;-67
2021/09/25 00:07:53;;;;;;;3.85;0.40;;;;;;;;;;5067676;28;20018;-67
2021/09/25 00:10:20;;;;;;;2.90;0.57;;;;;;;;;;5071809;28;20029;-67
2021/09/25 00:12:47;;;;;;;2.50;0.40;;;;;;;;;;5054134;28;20037;-67
2021/09/25 00:15:15;;;;;;;1.58;0.40;;;;;;;;;;5061775;28;20017;-67
2021/09/25 00:17:42;;;;;;;4.07;0.55;;;;;;;;;;5066516;28;20025;-66
2021/09/25 00:20:09;;;;;;;1.35;0.43;;;;;;;;;;5063305;28;20037;-69
2021/09/25 00:22:36;;;;;;;3.25;0.70;;;;;;;;;;5064757;28;20013;-68
2021/09/25 00:25:04;;;;;;;4.97;1.02;;;;;;;;;;5062932;28;20025;-67
2021/09/25 00:27:31;;;;;;;3.50;0.93;;;;;;;;;;5050957;28;20462;-68
2021/09/25 00:29:59;;;;;;;11.88;1.35;;;;;;;;;;5062632;28;20085;-67
2021/09/25 00:32:29;;;;;;;4.50;1.27;;;;;;;;;;5077583;28;20044;-68
2021/09/25 00:34:56;;;;;;;5.18;1.38;;;;;;;;;;5070923;28;20021;-68
2021/09/25 00:37:23;;;;;;;8.80;1.70;;;;;;;;;;5064263;28;20019;-67
2021/09/25 00:39:50;;;;;;;9.95;3.08;;;;;;;;;;5053758;28;20080;-67
2021/09/25 00:42:17;;;;;;;12.35;2.28;;;;;;;;;;5067939;28;20029;-65
2021/09/25 00:44:44;;;;;;;12.18;3.13;;;;;;;;;;5069389;28;20029;-66
2021/09/25 00:47:12;;;;;;;9.82;2.10;;;;;;;;;;5066773;28;20032;-65
2021/09/25 00:49:40;;;;;;;15.65;2.50;;;;;;;;;;5061889;28;20021;-66
2021/09/25 00:52:07;;;;;;;9.50;1.92;;;;;;;;;;5070386;28;20032;-66
2021/09/25 00:54:35;;;;;;;14.80;2.95;;;;;;;;;;5068635;28;20667;-66
2021/09/25 00:57:02;;;;;;;16.65;3.83;;;;;;;;;;5066502;28;20017;-66
2021/09/25 00:59:29;;;;;;;14.90;2.90;;;;;;;;;;5062627;28;20033;-66
2021/09/25 01:01:57;;;;;;;12.77;3.05;;;;;;;;;;5071389;28;20041;-66
2021/09/25 01:04:24;;;;;;;14.13;2.50;;;;;;;;;;5060947;28;20020;-66
2021/09/25 01:06:51;;;;;;;13.20;3.30;;;;;;;;;;5060642;28;20013;-66
2021/09/25 01:09:18;;;;;;;18.52;3.00;;;;;;;;;;5067265;28;20037;-66
2021/09/25 01:11:45;;;;;;;17.70;3.58;;;;;;;;;;5071661;28;20075;-66
2021/09/25 01:14:12;;;;;;;13.35;2.35;;;;;;;;;;5064201;28;20033;-67
2021/09/25 01:16:41;;;;;;;13.15;2.90;;;;;;;;;;5065941;28;20047;-66
2021/09/25 01:19:08;;;;;;;10.43;2.53;;;;;;;;;;5064694;28;20017;-66
2021/09/25 01:21:35;;;;;;;15.85;3.33;;;;;;;;;;5064913;28;20044;-67
2021/09/25 01:24:02;;;;;;;12.18;2.70;;;;;;;;;;5065587;28;20040;-67
2021/09/25 01:26:30;;;;;;;13.55;3.03;;;;;;;;;;5062609;28;20018;-66
2021/09/25 01:28:57;;;;;;;14.75;2.83;;;;;;;;;;5062940;28;20055;-65
2021/09/25 01:31:24;;;;;;;17.33;4.15;;;;;;;;;;5056522;28;20082;-67
2021/09/25 01:33:52;;;;;;;16.40;3.92;;;;;;;;;;5065892;28;20087;-69
2021/09/25 01:36:20;;;;;;;16.92;3.55;;;;;;;;;;5059342;28;20045;-68
2021/09/25 01:38:47;;;;;;;11.13;2.80;;;;;;;;;;5059478;28;20029;-68
2021/09/25 01:41:15;;;;;;;16.83;3.33;;;;;;;;;;5058065;28;20542;-70
2021/09/25 01:43:42;;;;;;;19.65;3.70;;;;;;;;;;5044798;28;20089;-68
2021/09/25 01:46:09;;;;;;;12.90;2.47;;;;;;;;;;5047770;28;20055;-67
2021/09/25 01:48:36;;;;;;;16.42;3.20;;;;;;;;;;5051553;28;20023;-69
2021/09/25 01:51:04;;;;;;;17.35;3.63;;;;;;;;;;5053560;28;20405;-68
2021/09/25 01:53:31;;;;;;;15.55;2.90;;;;;;;;;;5059799;28;20021;-67
2021/09/25 01:55:58;;;;;;;11.98;2.88;;;;;;;;;;5053768;28;20036;-69
2021/09/25 01:58:25;;;;;;;14.40;3.03;;;;;;;;;;5064542;28;20013;-68
2021/09/25 02:00:52;;;;;;;14.55;2.75;;;;;;;;;;5066641;28;20029;-66
2021/09/25 02:03:19;;;;;;;13.35;2.97;;;;;;;;;;5055458;28;20104;-68
2021/09/25 02:05:46;;;;;;;12.88;2.85;;;;;;;;;;5057705;28;20024;-68
2021/09/25 02:08:14;;;;;;;13.68;2.83;;;;;;;;;;5066764;28;20013;-67
2021/09/25 02:10:41;;;;;;;11.65;2.63;;;;;;;;;;5071467;28;20091;-66
2021/09/25 02:13:08;;;;;;;11.25;2.35;;;;;;;;;;5066066;28;20034;-68
2021/09/25 02:15:35;;;;;;;19.45;3.30;;;;;;;;;;5067668;28;20028;-66
2021/09/25 02:18:02;;;;;;;13.25;2.97;;;;;;;;;;5065578;28;20033;-67
2021/09/25 02:20:29;;;;;;;13.77;3.05;;;;;;;;;;5064906;28;20021;-67
2021/09/25 02:22:56;;;;;;;12.63;2.72;;;;;;;;;;5067802;28;20044;-67
2021/09/25 02:25:24;;;;;;;18.20;3.47;;;;;;;;;;5067885;28;20041;-67
2021/09/25 02:27:51;;;;;;;15.60;3.45;;;;;;;;;;5069825;28;20040;-68
2021/09/25 02:30:19;;;;;;;15.05;3.08;;;;;;;;;;5062133;28;20037;-67
2021/09/25 02:32:46;;;;;;;10.90;2.67;;;;;;;;;;5062727;28;20017;-66
2021/09/25 02:35:14;;;;;;;12.98;2.95;;;;;;;;;;5072643;28;20092;-67
2021/09/25 02:37:41;;;;;;;16.27;2.78;;;;;;;;;;5063130;28;20021;-67
2021/09/25 02:40:09;;;;;;;9.50;2.03;;;;;;;;;;5067294;28;20060;-67
2021/09/25 02:42:36;;;;;;;14.90;2.88;;;;;;;;;;5059527;28;20025;-67
2021/09/25 02:45:04;;;;;;;14.57;2.53;;;;;;;;;;5060751;28;20068;-68
2021/09/25 02:47:31;;;;;;;11.82;2.45;;;;;;;;;;5057212;28;20040;-67
2021/09/25 02:49:58;;;;;;;25.60;3.42;;;;;;;;;;5054056;28;20397;-68
2021/09/25 02:52:26;;;;;;;16.98;3.20;;;;;;;;;;5049903;28;20089;-67
2021/09/25 02:54:54;;;;;;;16.50;3.25;;;;;;;;;;5077535;28;20116;-68
2021/09/25 02:57:21;;;;;;;12.18;2.53;;;;;;;;;;5060374;28;20429;-68
2021/09/25 02:59:48;;;;;;;18.75;3.67;;;;;;;;;;5062268;28;20069;-67
2021/09/25 03:02:15;;;;;;;17.95;2.97;;;;;;;;;;5057772;28;20061;-68
2021/09/25 03:04:42;;;;;;;15.45;2.72;;;;;;;;;;5064543;28;20452;-68
2021/09/25 03:07:10;;;;;;;13.52;2.28;;;;;;;;;;5055860;28;20482;-69
2021/09/25 03:09:37;;;;;;;12.57;3.10;;;;;;;;;;5047492;28;20025;-69
2021/09/25 03:12:04;;;;;;;13.63;2.63;;;;;;;;;;5048399;28;20589;-69
2021/09/25 03:14:32;;;;;;;12.90;2.72;;;;;;;;;;5050634;28;20425;-69
2021/09/25 03:16:59;;;;;;;12.27;2.65;;;;;;;;;;5041151;28;20036;-70
2021/09/25 03:19:26;;;;;;;14.45;3.42;;;;;;;;;;5055578;28;20017;-68
2021/09/25 03:21:53;;;;;;;12.23;2.22;;;;;;;;;;5058251;28;20043;-68
2021/09/25 03:24:20;;;;;;;17.17;2.97;;;;;;;;;;5066307;28;20080;-69
2021/09/25 03:26:47;;;;;;;9.80;2.63;;;;;;;;;;5056545;28;20170;-68
2021/09/25 03:29:14;;;;;;;21.30;3.28;;;;;;;;;;5054476;28;20159;-68
2021/09/25 03:31:41;;;;;;;17.50;3.30;;;;;;;;;;5052589;28;20025;-69
2021/09/25 03:34:08;;;;;;;16.52;2.80;;;;;;;;;;5053982;28;20016;-69
2021/09/25 03:36:35;;;;;;;18.08;2.97;;;;;;;;;;5045075;28;20109;-68
2021/09/25 03:39:03;;;;;;;14.05;2.95;;;;;;;;;;5054924;28;20376;-68
2021/09/25 03:41:30;;;;;;;16.85;2.33;;;;;;;;;;5057758;28;20076;-70
2021/09/25 03:43:57;;;;;;;16.73;2.97;;;;;;;;;;5062097;28;20036;-67
2021/09/25 03:46:24;;;;;;;16.75;3.85;;;;;;;;;;5043573;28;20570;-69
2021/09/25 03:48:51;;;;;;;15.10;3.40;;;;;;;;;;5055949;28;20041;-68
2021/09/25 03:51:19;;;;;;;15.60;3.53;;;;;;;;;;5055188;28;20059;-69
2021/09/25 03:53:46;;;;;;;16.20;2.78;;;;;;;;;;5053742;28;20022;-68
2021/09/25 03:56:13;;;;;;;13.05;2.35;;;;;;;;;;5065679;28;20097;-70
2021/09/25 03:58:41;;;;;;;15.30;3.20;;;;;;;;;;5056078;28;20029;-70
2021/09/25 04:01:10;;;;;;;17.63;2.40;;;;;;;;;;5067082;28;20044;-68
2021/09/25 04:03:37;;;;;;;11.32;1.63;;;;;;;;;;5066158;28;20051;-69
2021/09/25 04:06:05;;;;;;;17.10;2.92;;;;;;;;;;5053270;28;20032;-69
2021/09/25 04:08:32;;;;;;;11.18;1.58;;;;;;;;;;5064396;28;20029;-68
2021/09/25 04:11:00;;;;;;;18.77;3.58;;;;;;;;;;5062407;28;20101;-69
2021/09/25 04:13:27;;;;;;;13.65;2.90;;;;;;;;;;5064139;28;20036;-68
2021/09/25 04:15:54;;;;;;;19.08;3.33;;;;;;;;;;5062368;28;20032;-68
2021/09/25 04:18:21;;;;;;;12.20;2.47;;;;;;;;;;5062753;28;20029;-70
2021/09/25 04:20:48;;;;;;;20.52;3.03;;;;;;;;;;5059245;28;20028;-69
2021/09/25 04:23:15;;;;;;;16.75;2.72;;;;;;;;;;5052554;28;20544;-67
2021/09/25 04:25:43;;;;;;;14.35;2.47;;;;;;;;;;5059472;28;20025;-68
2021/09/25 04:28:10;;;;;;;20.73;3.33;;;;;;;;;;5056136;28;20025;-69
2021/09/25 04:30:38;;;;;;;12.85;2.67;;;;;;;;;;5061529;28;20037;-68
2021/09/25 04:33:06;;;;;;;14.43;2.17;;;;;;;;;;5058671;28;20075;-68
2021/09/25 04:35:33;;;;;;;17.40;4.00;;;;;;;;;;5057262;28;20021;-68
2021/09/25 04:38:00;;;;;;;10.60;2.60;;;;;;;;;;5059904;28;20037;-68
2021/09/25 04:40:31;;;;;;;14.35;2.95;;;;;;;;;;5056708;28;20021;-69
2021/09/25 04:43:02;;;;;;;15.63;2.03;;;;;;;;;;5063143;28;20060;-67
2021/09/25 04:45:29;;;;;;;14.18;2.15;;;;;;;;;;5065655;28;20039;-68
2021/09/25 04:47:56;;;;;;;12.68;2.15;;;;;;;;;;5058257;28;20018;-68
2021/09/25 04:50:28;;;;;;;10.75;1.75;;;;;;;;;;5066926;28;20025;-69
2021/09/25 04:53:09;;;;;;;10.95;1.90;;;;;;;;;;5074004;28;20029;-68
2021/09/25 04:55:36;;;;;;;11.80;2.25;;;;;;;;;;5072567;28;20017;-68
2021/09/25 04:58:04;;;;;;;17.15;2.25;;;;;;;;;;5069255;28;20028;-67
2021/09/25 05:00:31;;;;;;;15.05;1.77;;;;;;;;;;5072240;28;20054;-68
2021/09/25 05:02:59;;;;;;;14.75;2.83;;;;;;;;;;5070303;28;20032;-67
2021/09/25 05:05:26;;;;;;;9.98;2.47;;;;;;;;;;5066240;28;20029;-68
2021/09/25 05:07:53;;;;;;;12.60;2.67;;;;;;;;;;5062540;28;20044;-68
2021/09/25 05:10:20;;;;;;;12.80;2.60;;;;;;;;;;5073588;28;20072;-67
2021/09/25 05:12:47;;;;;;;10.13;2.05;;;;;;;;;;5067488;28;20036;-69
2021/09/25 05:15:16;;;;;;;12.60;2.13;;;;;;;;;;5065183;28;20060;-68
2021/09/25 05:17:43;;;;;;;15.18;2.35;;;;;;;;;;5074465;28;20020;-68
2021/09/25 05:20:11;;;;;;;11.82;2.60;;;;;;;;;;5072094;28;20033;-69
2021/09/25 05:22:38;;;;;;;12.13;2.05;;;;;;;;;;5072458;28;20040;-69
2021/09/25 05:25:06;;;;;;;7.15;1.65;;;;;;;;;;5070296;28;20058;-68
2021/09/25 05:27:33;;;;;;;10.77;2.17;;;;;;;;;;5074429;28;20025;-67
2021/09/25 05:30:00;;;;;;;11.60;1.92;;;;;;;;;;5073256;28;20023;-68
2021/09/25 05:32:27;;;;;;;9.30;1.67;;;;;;;;;;5066920;28;20009;-67
2021/09/25 05:34:55;;;;;;;8.63;2.33;;;;;;;;;;5069024;28;20513;-67
2021/09/25 05:37:22;;;;;;;11.60;1.83;;;;;;;;;;5063082;28;20465;-67
2021/09/25 05:39:54;;;;;;;8.57;1.83;;;;;;;;;;5057171;28;20048;-68
2021/09/25 05:42:22;;;;;;;16.70;1.90;;;;;;;;;;5065464;28;20033;-68
2021/09/25 05:44:49;;;;;;;13.65;1.52;;;;;;;;;;5059153;28;20060;-67
2021/09/25 05:47:17;;;;;;;6.45;1.88;;;;;;;;;;5054079;28;20013;-67
2021/09/25 05:49:46;;;;;;;7.75;2.08;;;;;;;;;;5064309;28;20061;-67
2021/09/25 05:52:14;;;;;;;14.02;1.63;;;;;;;;;;5061770;28;20080;-69
2021/09/25 05:54:41;;;;;;;14.02;2.55;;;;;;;;;;5056411;28;20005;-66
2021/09/25 05:57:08;;;;;;;9.63;1.50;;;;;;;;;;5060856;28;20021;-67
2021/09/25 05:59:36;;;;;;;13.45;1.75;;;;;;;;;;5068132;28;20078;-68
2021/09/25 06:02:03;;;;;;;13.57;1.40;;;;;;;;;;5065049;28;20090;-67
2021/09/25 06:04:32;;;;;;;9.30;1.42;;;;;;;;;;5064161;28;20017;-67
2021/09/25 06:06:59;;;;;;;10.52;1.55;;;;;;;;;;5056640;28;20036;-67
2021/09/25 06:09:26;;;;;;;14.38;1.75;;;;;;;;;;5064738;28;20021;-66
2021/09/25 06:11:54;;;;;;;9.50;1.50;;;;;;;;;;5062877;28;20036;-66
2021/09/25 06:14:21;;;;;;;14.93;2.13;;;;;;;;;;5065687;28;20029;-66
2021/09/25 06:16:48;;;;;;;8.30;1.75;;;;;;;;;;5064363;28;20051;-66
2021/09/25 06:19:16;;;;;;;10.10;1.67;;;;;;;;;;5068865;28;20013;-67
2021/09/25 06:21:43;;;;;;;10.43;1.77;;;;;;;;;;5066306;28;20057;-66
2021/09/25 06:24:11;;;;;;;12.25;2.30;;;;;;;;;;5076865;28;20016;-67
2021/09/25 06:26:38;;;;;;;9.38;1.77;;;;;;;;;;5066739;28;20040;-66
2021/09/25 06:29:06;;;;;;;11.52;2.25;;;;;;;;;;5073312;28;20047;-67
2021/09/25 06:31:33;;;;;;;12.15;2.42;;;;;;;;;;5072478;28;20006;-66
2021/09/25 06:34:01;;;;;;;16.90;2.03;;;;;;;;;;5076989;28;20084;-66
2021/09/25 06:36:28;;;;;;;10.35;1.52;;;;;;;;;;5062412;28;20025;-66
2021/09/25 06:38:55;;;;;;;11.43;2.00;;;;;;;;;;5060414;28;20061;-66
2021/09/25 06:41:23;;;;;;;16.90;2.28;;;;;;;;;;5063197;28;20089;-67
2021/09/25 06:43:50;;;;;;;16.70;1.90;;;;;;;;;;5070164;28;20096;-66
2021/09/25 06:46:17;;;;;;;15.93;2.35;;;;;;;;;;5061313;28;20067;-67
2021/09/25 06:48:44;;;;;;;16.23;2.70;;;;;;;;;;5085637;28;20029;-67
2021/09/25 06:51:11;;;;;;;12.32;2.28;;;;;;;;;;5075697;28;20056;-66
2021/09/25 06:53:38;;;;;;;13.52;2.85;;;;;;;;;;5073771;28;20081;-67
2021/09/25 06:56:05;;;;;;;15.45;1.85;;;;;;;;;;5064251;28;20049;-67
2021/09/25 06:58:33;;;;;;;15.15;2.05;;;;;;;;;;5057213;28;20052;-66
2021/09/25 07:01:00;;;;;;;8.52;1.52;;;;;;;;;;5070851;28;20048;-66
2021/09/25 07:03:27;;;;;;;15.73;2.47;;;;;;;;;;5072607;28;20033;-67
2021/09/25 07:05:54;;;;;;;10.68;2.08;;;;;;;;;;5055559;28;20014;-66
2021/09/25 07:08:21;;;;;;;12.38;2.28;;;;;;;;;;5059148;28;20009;-67
2021/09/25 07:10:50;;;;;;;13.57;1.90;;;;;;;;;;5071198;28;20026;-66
2021/09/25 07:13:18;;;;;;;15.02;2.30;;;;;;;;;;5065374;28;20017;-66
2021/09/25 07:15:45;;;;;;;9.85;1.52;;;;;;;;;;5065497;28;20014;-68
2021/09/25 07:18:12;;;;;;;14.85;2.35;;;;;;;;;;5066029;28;20017;-67
2021/09/25 07:20:43;;;;;;;19.75;3.20;;;;;;;;;;5052105;28;20036;-67
2021/09/25 07:23:10;;;;;;;20.38;3.67;;;;;;;;;;5050864;28;20049;-67
2021/09/25 07:25:39;;;;;;;19.67;2.60;;;;;;;;;;5046874;28;20490;-67
2021/09/25 07:28:07;;;;;;;13.98;2.65;;;;;;;;;;5049914;28;20018;-68
2021/09/25 07:30:37;;;;;;;16.60;2.95;;;;;;;;;;5051736;28;20036;-68
2021/09/25 07:33:05;;;;;;;10.35;2.05;;;;;;;;;;5053427;28;20465;-69
2021/09/25 07:35:34;;;;;;;15.13;1.98;;;;;;;;;;5048805;28;20025;-68
2021/09/25 07:38:04;;;;;;;12.43;2.22;;;;;;;;;;5043341;28;20044;-68
2021/09/25 07:40:32;;;;;;;13.25;2.70;;;;;;;;;;5035441;28;20033;-67
2021/09/25 07:43:00;;;;;;;19.17;2.75;;;;;;;;;;5039811;28;20091;-68
2021/09/25 07:45:27;;;;;;;12.70;2.17;;;;;;;;;;5041749;28;20437;-68
2021/09/25 07:47:54;;;;;;;12.43;2.67;;;;;;;;;;5033559;28;20057;-68
2021/09/25 07:50:21;;;;;;;8.30;1.75;;;;;;;;;;5043217;28;20025;-67
2021/09/25 07:52:49;;;;;;;9.95;1.70;;;;;;;;;;5044837;28;20029;-68
2021/09/25 07:55:16;;;;;;;12.70;1.38;;;;;;;;;;5042897;28;20029;-68
2021/09/25 07:57:43;;;;;;;23.30;3.55;;;;;;;;;;5042849;28;20021;-68
2021/09/25 08:00:12;;;;;;;13.25;1.85;;;;;;;;;;5040426;28;20043;-67
2021/09/25 08:02:40;;;;;;;13.40;2.35;;;;;;;;;;5040977;28;20108;-67
2021/09/25 08:05:08;;;;;;;10.25;1.80;;;;;;;;;;5036795;28;20025;-67
2021/09/25 08:07:35;;;;;;;9.27;2.33;;;;;;;;;;5044008;28;20104;-68
2021/09/25 08:10:02;;;;;;;10.52;2.10;;;;;;;;;;5039582;28;20101;-68
2021/09/25 08:12:29;;;;;;;15.05;2.25;;;;;;;;;;5036076;28;20022;-69
2021/09/25 08:14:57;;;;;;;12.35;1.73;;;;;;;;;;5046032;28;20026;-68
2021/09/25 08:17:24;;;;;;;11.65;2.30;;;;;;;;;;5040907;28;20081;-68
2021/09/25 08:19:52;;;;;;;18.13;3.25;;;;;;;;;;5040846;28;20049;-68
2021/09/25 08:22:19;;;;;;;14.60;4.95;;;;;;;;;;5044928;28;20079;-68
2021/09/25 08:24:46;;;;;;;26.88;5.72;;;;;;;;;;5057194;28;20509;-68
2021/09/25 08:27:14;;;;;;;14.32;3.05;;;;;;;;;;5050444;28;20021;-67
2021/09/25 08:29:41;;;;;;;13.88;2.20;;;;;;;;;;5052106;28;20021;-67
2021/09/25 08:32:08;;;;;;;10.65;2.13;;;;;;;;;;5053312;28;20040;-68
2021/09/25 08:34:35;;;;;;;20.23;1.98;;;;;;;;;;5050682;28;20531;-68
2021/09/25 08:37:05;;;;;;;12.10;3.25;;;;;;;;;;5056796;28;20053;-68
2021/09/25 08:39:32;;;;;;;14.13;2.55;;;;;;;;;;5055808;28;20513;-69
2021/09/25 08:42:00;;;;;;;16.17;2.13;;;;;;;;;;5058371;28;20029;-69
2021/09/25 08:44:28;;;;;;;18.85;2.15;;;;;;;;;;5051378;28;20394;-68
2021/09/25 08:46:55;;;;;;;13.80;2.78;;;;;;;;;;5057365;28;20010;-66
2021/09/25 08:49:22;;;;;;;15.75;1.98;;;;;;;;;;5064989;28;20021;-66
2021/09/25 08:51:52;;;;;;;14.63;2.80;;;;;;;;;;5068040;28;20009;-66
2021/09/25 08:54:19;;;;;;;9.20;2.42;;;;;;;;;;5061621;28;20033;-67
2021/09/25 08:56:46;;;;;;;14.05;1.90;;;;;;;;;;5071778;28;20025;-66
2021/09/25 08:59:13;;;;;;;13.30;3.05;;;;;;;;;;5073554;28;20020;-66
2021/09/25 09:01:44;;;;;;;18.42;2.35;;;;;;;;;;5064295;28;20034;-66
2021/09/25 09:04:12;;;;;;;13.98;2.53;;;;;;;;;;5059447;28;20047;-67
2021/09/25 09:06:39;;;;;;;12.48;3.50;;;;;;;;;;5054283;28;20010;-67
2021/09/25 09:09:07;;;;;;;21.60;3.40;;;;;;;;;;5059089;28;20009;-67
2021/09/25 09:11:40;;;;;;;13.55;2.22;;;;;;;;;;5054078;28;20030;-67
2021/09/25 09:14:07;;;;;;;11.10;2.30;;;;;;;;;;5066599;28;20021;-67
2021/09/25 09:16:34;;;;;;;13.48;2.25;;;;;;;;;;5063139;28;20013;-67
2021/09/25 09:19:01;;;;;;;16.30;2.78;;;;;;;;;;5065500;28;20017;-67
2021/09/25 09:21:31;;;;;;;9.93;1.75;;;;;;;;;;5062986;28;20037;-68
2021/09/25 09:23:59;;;;;;;19.23;2.58;;;;;;;;;;5050700;28;20040;-67
2021/09/25 09:26:34;;;;;;;11.93;2.35;;;;;;;;;;5069979;28;20032;-66
2021/09/25 09:29:02;;;;;;;8.95;2.38;;;;;;;;;;5057750;28;20486;-67
2021/09/25 09:31:29;;;;;;;12.77;1.95;;;;;;;;;;5065284;28;20160;-66
2021/09/25 09:34:00;;;;;;;12.68;2.08;;;;;;;;;;5050834;28;20030;-67
2021/09/25 09:36:36;;;;;;;11.88;2.17;;;;;;;;;;5057775;28;20021;-66
2021/09/25 09:39:03;;;;;;;11.43;2.45;;;;;;;;;;5067714;28;20041;-66
2021/09/25 09:41:31;;;;;;;7.53;1.67;;;;;;;;;;5046657;28;20492;-67
2021/09/25 09:44:03;;;;;;;9.13;2.30;;;;;;;;;;5052361;28;20116;-67
2021/09/25 09:46:32;;;;;;;10.50;2.25;;;;;;;;;;5046079;28;20029;-67
2021/09/25 09:48:59;;;;;;;12.63;1.88;;;;;;;;;;5037070;28;20052;-67
2021/09/25 09:51:37;;;;;;;11.85;2.30;;;;;;;;;;5049490;28;20055;-68
2021/09/25 09:54:04;;;;;;;13.85;2.85;;;;;;;;;;5056498;28;20048;-68
2021/09/25 09:56:31;;;;;;;9.48;2.15;;;;;;;;;;5060692;28;20040;-67
2021/09/25 09:59:04;;;;;;;9.73;1.75;;;;;;;;;;5042426;28;20049;-68
2021/09/25 10:01:31;;;;;;;8.50;1.58;;;;;;;;;;5040844;28;20121;-70
2021/09/25 10:03:59;;;;;;;8.93;1.67;;;;;;;;;;5040828;28;20077;-68
2021/09/25 10:06:26;;;;;;;6.82;1.45;;;;;;;;;;5052185;28;20078;-68
2021/09/25 10:08:56;;;;;;;8.13;1.23;;;;;;;;;;5055252;28;20040;-68
2021/09/25 10:11:24;;;;;;;8.70;1.25;;;;;;;;;;5054640;28;20040;-67
2021/09/25 10:13:51;;;;;;;10.93;1.42;;;;;;;;;;5059056;28;20025;-68
2021/09/25 10:16:19;;;;;;;9.65;1.73;;;;;;;;;;5055099;28;20466;-67
2021/09/25 10:18:46;;;;;;;10.75;1.77;;;;;;;;;;5057769;28;20033;-68
2021/09/25 10:21:14;;;;;;;15.20;2.03;;;;;;;;;;5057218;28;20033;-68
2021/09/25 10:23:51;;;;;;;20.08;1.98;;;;;;;;;;5061271;28;20377;-68
2021/09/25 10:26:19;;;;;;;8.93;1.65;;;;;;;;;;5059333;28;20104;-68
2021/09/25 10:28:56;;;;;;;14.00;2.20;;;;;;;;;;5060620;28;20382;-69
2021/09/25 10:31:24;;;;;;;11.35;2.33;;;;;;;;;;5060958;28;20116;-67
2021/09/25 10:34:20;;;;;;;14.05;2.33;;;;;;;;;;5046018;28;20079;-66
2021/09/25 10:36:50;;;;;;;11.30;1.77;;;;;;;;;;5045669;28;20080;-67
2021/09/25 10:39:18;;;;;;;9.05;1.58;;;;;;;;;;5062732;28;20103;-67
2021/09/25 10:41:46;;;;;;;12.35;2.17;;;;;;;;;;5059006;28;20017;-66
2021/09/25 10:44:27;;;;;;;11.95;2.17;;;;;;;;;;5050415;28;20033;-67
2021/09/25 10:47:05;;;;;;;16.00;3.65;;;;;;;;;;5056531;28;20426;-66
2021/09/25 10:49:50;;;;;;;11.95;2.78;;;;;;;;;;5059712;28;20088;-67
2021/09/25 10:52:20;;;;;;;8.52;1.35;;;;;;;;;;5051565;28;20033;-66
2021/09/25 10:55:07;;;;;;;9.65;1.30;;;;;;;;;;5043201;28;20033;-67
2021/09/25 10:57:34;;;;;;;10.55;1.17;;;;;;;;;;5064692;28;20048;-67
2021/09/25 11:00:20;;;;;;;12.18;1.55;;;;;;;;;;5061932;28;20044;-67
2021/09/25 11:02:47;;;;;;;10.18;1.95;;;;;;;;;;5056304;28;20104;-67
2021/09/25 11:05:15;;;;;;;9.63;1.80;;;;;;;;;;5050562;28;20026;-67
2021/09/25 11:07:43;;;;;;;16.20;2.03;;;;;;;;;;5064866;28;20022;-66
2021/09/25 11:10:10;;;;;;;12.07;1.92;;;;;;;;;;5065735;28;20032;-66
2021/09/25 11:12:48;;;;;;;10.45;1.98;;;;;;;;;;5072271;28;20033;-67
2021/09/25 11:15:30;;;;;;;10.25;1.80;;;;;;;;;;5070469;28;20017;-66
2021/09/25 11:18:20;;;;;;;15.35;2.20;;;;;;;;;;5070108;28;20044;-67
2021/09/25 11:20:47;;;;;;;7.55;1.50;;;;;;;;;;5060680;28;20045;-67
2021/09/25 11:23:15;;;;;;;11.10;2.10;;;;;;;;;;5073495;28;20017;-70
2021/09/25 11:25:42;;;;;;;12.48;2.45;;;;;;;;;;5062559;28;20018;-69
2021/09/25 11:28:09;;;;;;;13.25;2.08;;;;;;;;;;5069887;28;20031;-69
2021/09/25 11:30:36;;;;;;;10.70;1.92;;;;;;;;;;5062932;28;20014;-69
2021/09/25 11:33:04;;;;;;;10.73;1.73;;;;;;;;;;5068304;28;20021;-69
2021/09/25 11:35:36;;;;;;;10.85;1.30;;;;;;;;;;5059721;28;20064;-69
2021/09/25 11:38:06;;;;;;;10.43;1.83;;;;;;;;;;5055838;28;20055;-68
2021/09/25 11:40:33;;;;;;;9.75;2.22;;;;;;;;;;5056439;28;20053;-69
2021/09/25 11:43:07;;;;;;;14.68;1.60;;;;;;;;;;5063402;28;20051;-68
2021/09/25 11:45:36;;;;;;;10.10;2.47;;;;;;;;;;5061989;28;20044;-67
2021/09/25 11:48:04;;;;;;;13.73;1.38;;;;;;;;;;5059952;28;20017;-68
2021/09/25 11:50:35;;;;;;;10.52;1.88;;;;;;;;;;5074868;28;20072;-68
2021/09/25 11:53:06;;;;;;;18.48;2.22;;;;;;;;;;5060253;28;20021;-69
2021/09/25 11:55:34;;;;;;;8.57;1.88;;;;;;;;;;5068757;28;20032;-68
2021/09/25 11:58:02;;;;;;;12.80;1.65;;;;;;;;;;5052159;28;20029;-67
2021/09/25 12:00:34;;;;;;;14.52;1.90;;;;;;;;;;5054215;28;20118;-69
2021/09/25 12:03:02;;;;;;;15.43;2.50;;;;;;;;;;5056110;28;20029;-69
2021/09/25 12:05:32;;;;;;;15.40;1.67;;;;;;;;;;5072279;28;20060;-68
2021/09/25 12:08:01;;;;;;;11.88;2.30;;;;;;;;;;5057430;28;20494;-69
2021/09/25 12:10:28;;;;;;;10.13;1.88;;;;;;;;;;5069746;28;20032;-66
2021/09/25 12:13:00;;;;;;;12.73;2.00;;;;;;;;;;5065928;28;20041;-65
2021/09/25 12:15:30;;;;;;;13.25;2.00;;;;;;;;;;5063435;28;20013;-66
2021/09/25 12:18:10;;;;;;;10.60;1.65;;;;;;;;;;5071602;28;20009;-65
2021/09/25 12:20:37;;;;;;;10.18;1.45;;;;;;;;;;5077358;28;20041;-65
2021/09/25 12:23:08;;;;;;;13.82;3.13;;;;;;;;;;5066935;28;20005;-65
2021/09/25 12:25:37;;;;;;;9.15;1.70;;;;;;;;;;5072308;28;20116;-65
2021/09/25 12:28:22;;;;;;;14.10;1.35;;;;;;;;;;5070406;28;20017;-65
2021/09/25 12:30:50;;;;;;;13.07;2.28;;;;;;;;;;5071432;28;20120;-65
2021/09/25 12:33:20;;;;;;;8.63;1.90;;;;;;;;;;5072849;28;20017;-66
2021/09/25 12:36:04;;;;;;;12.15;1.85;;;;;;;;;;5070507;28;20093;-65
2021/09/25 12:38:43;;;;;;;15.00;1.87;;;;;;;;;;5066493;28;20105;-66
2021/09/25 12:41:12;;;;;;;12.27;1.90;;;;;;;;;;5064667;28;20351;-68
2021/09/25 12:43:44;;;;;;;11.23;2.28;;;;;;;;;;5076634;28;20023;-66
2021/09/25 12:46:14;;;;;;;11.93;1.88;;;;;;;;;;5072414;28;20072;-66
2021/09/25 12:49:22;;;;;;;9.18;1.13;;;;;;;;;;5072915;28;20017;-65
2021/09/25 12:52:00;;;;;;;8.07;1.42;;;;;;;;;;5049195;28;20037;-65
2021/09/25 12:54:30;;;;;;;9.82;1.73;;;;;;;;;;5050754;28;20085;-66
2021/09/25 12:57:01;;;;;;;11.07;1.52;;;;;;;;;;5060514;28;20029;-66
2021/09/25 12:59:30;;;;;;;8.32;1.08;;;;;;;;;;5073205;28;20028;-66
2021/09/25 13:02:00;;;;;;;7.80;1.63;;;;;;;;;;5067395;28;20081;-66
2021/09/25 13:04:28;;;;;;;7.90;1.30;;;;;;;;;;5077279;28;20065;-66
2021/09/25 13:06:57;;;;;;;10.02;1.45;;;;;;;;;;5074649;28;20017;-66
2021/09/25 13:09:25;;;;;;;8.35;1.42;;;;;;;;;;5076577;28;20020;-66
2021/09/25 13:12:24;;;;;;;10.15;1.50;;;;;;;;;;5076524;28;20024;-66
2021/09/25 13:15:15;;;;;;;10.48;1.60;;;;;;;;;;5048814;28;20033;-66
2021/09/25 13:17:43;;;;;;;14.15;2.03;;;;;;;;;;5074581;28;20093;-66
2021/09/25 13:20:15;;;;;;;9.13;1.52;;;;;;;;;;5075415;28;20102;-66
2021/09/25 13:22:43;;;;;;;17.40;2.88;;;;;;;;;;5074213;28;20024;-65
2021/09/25 13:25:10;;;;;;;5.40;1.17;;;;;;;;;;5058797;28;20068;-66
2021/09/25 13:27:37;;;;;;;12.38;2.45;;;;;;;;;;5076194;28;20013;-66
2021/09/25 13:30:05;;;;;;;5.15;1.52;;;;;;;;;;5075143;28;20005;-66
2021/09/25 13:32:32;;;;;;;8.25;1.33;;;;;;;;;;5066554;28;20081;-66
2021/09/25 13:35:00;;;;;;;9.98;1.75;;;;;;;;;;5073398;28;20028;-66
2021/09/25 13:37:27;;;;;;;10.10;0.93;;;;;;;;;;5071443;28;20010;-66
2021/09/25 13:39:55;;;;;;;6.15;1.30;;;;;;;;;;5066524;28;20041;-66
2021/09/25 13:42:22;;;;;;;10.75;1.52;;;;;;;;;;5061828;28;20054;-66
2021/09/25 13:44:49;;;;;;;8.88;0.90;;;;;;;;;;5073918;28;20024;-66
2021/09/25 13:47:16;;;;;;;13.23;2.17;;;;;;;;;;5076659;28;20032;-66
2021/09/25 13:49:43;;;;;;;10.50;1.83;;;;;;;;;;5080405;28;20013;-65
2021/09/25 13:52:12;;;;;;;12.73;2.28;;;;;;;;;;5076917;28;20025;-66
2021/09/25 13:54:39;;;;;;;9.45;2.78;;;;;;;;;;5080753;28;20077;-65
2021/09/25 13:57:06;;;;;;;11.85;2.17;;;;;;;;;;5080406;28;20025;-66
2021/09/25 13:59:37;;;;;;;9.25;1.70;;;;;;;;;;5079491;28;20017;-66
2021/09/25 14:02:05;;;;;;;10.77;2.53;;;;;;;;;;5077428;28;20025;-65
2021/09/25 14:04:32;;;;;;;12.80;1.95;;;;;;;;;;5080139;28;20033;-66
2021/09/25 14:06:59;;;;;;;11.10;1.65;;;;;;;;;;5077467;28;20076;-65
2021/09/25 14:09:31;;;;;;;16.23;2.20;;;;;;;;;;5069636;28;20096;-65
2021/09/25 14:11:59;;;;;;;14.43;1.85;;;;;;;;;;5067356;28;20013;-65
2021/09/25 14:14:26;;;;;;;9.95;2.63;;;;;;;;;;5060064;28;20041;-65
2021/09/25 14:16:54;;;;;;;11.88;1.70;;;;;;;;;;5076190;28;20017;-66
2021/09/25 14:19:21;;;;;;;14.82;2.35;;;;;;;;;;5076841;28;20029;-65
2021/09/25 14:21:48;;;;;;;16.42;1.48;;;;;;;;;;5060629;28;20071;-65
2021/09/25 14:24:15;;;;;;;10.98;1.50;;;;;;;;;;5076718;28;20040;-65
2021/09/25 14:26:43;;;;;;;8.82;1.75;;;;;;;;;;5079007;28;20021;-66
2021/09/25 14:29:12;;;;;;;11.20;1.80;;;;;;;;;;5079600;28;20043;-66
2021/09/25 14:31:40;;;;;;;8.18;1.55;;;;;;;;;;5074367;28;20016;-65
2021/09/25 14:34:07;;;;;;;11.23;1.80;;;;;;;;;;5069973;28;20056;-66
2021/09/25 14:36:35;;;;;;;9.63;1.70;;;;;;;;;;5065752;28;20044;-66
2021/09/25 14:39:03;;;;;;;10.93;1.65;;;;;;;;;;5066360;28;20041;-66
2021/09/25 14:41:30;;;;;;;12.13;1.63;;;;;;;;;;5062997;28;20053;-66